sensor_id;sensor_type;location;lat;lon;timestamp;temperature;humidity
4451;DHT22;2238;50.180;9.230;2023-04-03T00:01:17;3.30;99.90
4451;DHT22;2238;50.180;9.230;2023-04-03T00:04:17;3.20;99.90
4451;DHT22;2238;50.180;9.230;2023-04-03T00:07:18;2.80;99.90
4451;DHT22;2238;50.180;9.230;2023-04-03T00:10:18;3.20;99.90
4451;DHT22;2238;50.180;9.230;2023-04-03T00:13:19;3.10;99.90
4451;DHT22;2238;50.180;9.230;2023-04-03T00:16:20;3.10;99.90
4451;DHT22;2238;50.180;9.230;2023-04-03T00:19:20;3.10;99.90
4451;DHT22;2238;50.180;9.230;2023-04-03T00:22:21;3.30;99.90
4451;DHT22;2238;50.180;9.230;2023-04-03T00:25:22;3.50;99.90
4451;DHT22;2238;50.180;9.230;2023-04-03T00:28:22;3.40;99.90
4451;DHT22;2238;50.180;9.230;2023-04-03T00:31:23;3.60;99.90
4451;DHT22;2238;50.180;9.230;2023-04-03T00:34:24;3.50;99.90
4451;DHT22;2238;50.180;9.230;2023-04-03T00:37:25;3.50;99.90
4451;DHT22;2238;50.180;9.230;2023-04-03T00:40:26;4.40;99.90
4451;DHT22;2238;50.180;9.230;2023-04-03T00:43:27;3.50;99.90
4451;DHT22;2238;50.180;9.230;2023-04-03T00:46:28;3.90;99.90
4451;DHT22;2238;50.180;9.230;2023-04-03T00:49:29;4.00;99.90
4451;DHT22;2238;50.180;9.230;2023-04-03T00:52:30;4.00;99.90
4451;DHT22;2238;50.180;9.230;2023-04-03T00:55:32;4.10;99.90
4451;DHT22;2238;50.180;9.230;2023-04-03T00:58:38;4.10;99.90
4451;DHT22;2238;50.180;9.230;2023-04-03T01:01:42;3.90;99.90
4451;DHT22;2238;50.180;9.230;2023-04-03T01:04:43;3.80;99.90
4451;DHT22;2238;50.180;9.230;2023-04-03T01:07:44;3.70;99.90
4451;DHT22;2238;50.180;9.230;2023-04-03T01:10:46;3.70;99.90
4451;DHT22;2238;50.180;9.230;2023-04-03T01:13:47;3.70;99.90
4451;DHT22;2238;50.180;9.230;2023-04-03T01:16:53;3.80;99.90
4451;DHT22;2238;50.180;9.230;2023-04-03T01:26:36;3.70;99.90
4451;DHT22;2238;50.180;9.230;2023-04-03T01:29:37;3.80;99.90
4451;DHT22;2238;50.180;9.230;2023-04-03T01:32:38;3.80;99.90
4451;DHT22;2238;50.180;9.230;2023-04-03T01:35:38;3.80;99.90
4451;DHT22;2238;50.180;9.230;2023-04-03T01:38:39;3.80;99.90
4451;DHT22;2238;50.180;9.230;2023-04-03T01:41:40;3.80;99.90
4451;DHT22;2238;50.180;9.230;2023-04-03T01:44:41;3.90;99.90
4451;DHT22;2238;50.180;9.230;2023-04-03T01:47:41;3.90;99.90
4451;DHT22;2238;50.180;9.230;2023-04-03T01:50:42;3.50;99.90
4451;DHT22;2238;50.180;9.230;2023-04-03T01:53:42;3.50;99.90
4451;DHT22;2238;50.180;9.230;2023-04-03T01:56:43;3.70;99.90
4451;DHT22;2238;50.180;9.230;2023-04-03T01:59:44;3.50;99.90
4451;DHT22;2238;50.180;9.230;2023-04-03T02:02:44;3.40;99.90
4451;DHT22;2238;50.180;9.230;2023-04-03T02:05:45;3.40;99.90
4451;DHT22;2238;50.180;9.230;2023-04-03T02:08:46;3.60;99.90
4451;DHT22;2238;50.180;9.230;2023-04-03T02:11:46;3.90;99.90
4451;DHT22;2238;50.180;9.230;2023-04-03T02:14:47;3.70;99.90
4451;DHT22;2238;50.180;9.230;2023-04-03T02:17:48;3.80;99.90
4451;DHT22;2238;50.180;9.230;2023-04-03T02:20:48;3.50;99.90
4451;DHT22;2238;50.180;9.230;2023-04-03T02:23:49;3.50;99.90
4451;DHT22;2238;50.180;9.230;2023-04-03T02:26:50;3.50;99.90
4451;DHT22;2238;50.180;9.230;2023-04-03T02:29:51;3.50;99.90
4451;DHT22;2238;50.180;9.230;2023-04-03T02:32:51;3.60;99.90
4451;DHT22;2238;50.180;9.230;2023-04-03T02:35:53;3.60;99.90
4451;DHT22;2238;50.180;9.230;2023-04-03T02:38:54;5.30;99.90
4451;DHT22;2238;50.180;9.230;2023-04-03T02:41:55;3.50;99.90
4451;DHT22;2238;50.180;9.230;2023-04-03T02:44:55;3.60;99.90
4451;DHT22;2238;50.180;9.230;2023-04-03T02:47:56;3.50;99.90
4451;DHT22;2238;50.180;9.230;2023-04-03T02:50:57;3.60;99.90
4451;DHT22;2238;50.180;9.230;2023-04-03T02:53:57;3.60;99.90
4451;DHT22;2238;50.180;9.230;2023-04-03T02:56:58;3.40;99.90
4451;DHT22;2238;50.180;9.230;2023-04-03T02:59:58;3.40;99.90
4451;DHT22;2238;50.180;9.230;2023-04-03T03:02:59;3.40;99.90
4451;DHT22;2238;50.180;9.230;2023-04-03T03:06:08;3.50;99.90
4451;DHT22;2238;50.180;9.230;2023-04-03T03:09:10;3.40;99.90
4451;DHT22;2238;50.180;9.230;2023-04-03T03:12:10;3.40;99.90
4451;DHT22;2238;50.180;9.230;2023-04-03T03:15:11;3.30;99.90
4451;DHT22;2238;50.180;9.230;2023-04-03T03:18:12;3.40;99.90
4451;DHT22;2238;50.180;9.230;2023-04-03T03:21:13;3.40;99.90
4451;DHT22;2238;50.180;9.230;2023-04-03T03:24:13;3.30;99.90
4451;DHT22;2238;50.180;9.230;2023-04-03T03:27:16;3.20;99.90
4451;DHT22;2238;50.180;9.230;2023-04-03T03:30:16;3.00;99.90
4451;DHT22;2238;50.180;9.230;2023-04-03T03:33:17;3.00;99.90
4451;DHT22;2238;50.180;9.230;2023-04-03T03:36:18;3.00;99.90
4451;DHT22;2238;50.180;9.230;2023-04-03T03:39:19;1.50;99.90
4451;DHT22;2238;50.180;9.230;2023-04-03T03:42:19;3.00;99.90
4451;DHT22;2238;50.180;9.230;2023-04-03T03:45:20;2.80;99.90
4451;DHT22;2238;50.180;9.230;2023-04-03T03:48:21;2.90;99.90
4451;DHT22;2238;50.180;9.230;2023-04-03T03:51:21;2.80;99.90
4451;DHT22;2238;50.180;9.230;2023-04-03T03:54:22;2.70;99.90
4451;DHT22;2238;50.180;9.230;2023-04-03T03:57:23;2.70;99.90
4451;DHT22;2238;50.180;9.230;2023-04-03T04:00:23;2.70;99.90
4451;DHT22;2238;50.180;9.230;2023-04-03T04:03:24;2.70;99.90
4451;DHT22;2238;50.180;9.230;2023-04-03T04:06:24;2.80;99.90
4451;DHT22;2238;50.180;9.230;2023-04-03T04:09:26;2.60;99.90
4451;DHT22;2238;50.180;9.230;2023-04-03T04:12:27;2.50;99.90
4451;DHT22;2238;50.180;9.230;2023-04-03T04:15:27;2.40;99.90
4451;DHT22;2238;50.180;9.230;2023-04-03T04:37:24;1.70;99.90
4451;DHT22;2238;50.180;9.230;2023-04-03T04:40:25;1.70;99.90
4451;DHT22;2238;50.180;9.230;2023-04-03T04:43:26;1.70;99.90
4451;DHT22;2238;50.180;9.230;2023-04-03T04:46:27;1.70;99.90
4451;DHT22;2238;50.180;9.230;2023-04-03T04:49:27;1.60;99.90
4451;DHT22;2238;50.180;9.230;2023-04-03T04:52:29;1.70;99.90
4451;DHT22;2238;50.180;9.230;2023-04-03T04:55:30;1.50;99.90
4451;DHT22;2238;50.180;9.230;2023-04-03T04:58:31;1.40;99.90
4451;DHT22;2238;50.180;9.230;2023-04-03T05:01:31;1.40;99.90
4451;DHT22;2238;50.180;9.230;2023-04-03T05:04:32;1.30;99.90
4451;DHT22;2238;50.180;9.230;2023-04-03T05:07:33;1.40;99.90
4451;DHT22;2238;50.180;9.230;2023-04-03T05:10:35;1.40;99.90
4451;DHT22;2238;50.180;9.230;2023-04-03T05:13:36;1.30;99.90
4451;DHT22;2238;50.180;9.230;2023-04-03T05:16:36;1.40;99.90
4451;DHT22;2238;50.180;9.230;2023-04-03T05:19:37;1.30;99.90
4451;DHT22;2238;50.180;9.230;2023-04-03T05:22:38;1.20;99.90
4451;DHT22;2238;50.180;9.230;2023-04-03T05:25:39;1.10;99.90
4451;DHT22;2238;50.180;9.230;2023-04-03T05:28:39;1.10;99.90
4451;DHT22;2238;50.180;9.230;2023-04-03T05:31:40;1.10;99.90
4451;DHT22;2238;50.180;9.230;2023-04-03T05:34:41;1.00;99.90
4451;DHT22;2238;50.180;9.230;2023-04-03T05:37:41;1.20;99.90
4451;DHT22;2238;50.180;9.230;2023-04-03T05:40:42;1.30;99.90
4451;DHT22;2238;50.180;9.230;2023-04-03T05:43:43;1.40;99.90
4451;DHT22;2238;50.180;9.230;2023-04-03T05:46:43;1.60;99.90
4451;DHT22;2238;50.180;9.230;2023-04-03T05:49:44;1.30;99.90
4451;DHT22;2238;50.180;9.230;2023-04-03T05:52:47;1.40;99.90
4451;DHT22;2238;50.180;9.230;2023-04-03T05:55:48;1.60;99.90
4451;DHT22;2238;50.180;9.230;2023-04-03T05:58:50;1.60;99.90
4451;DHT22;2238;50.180;9.230;2023-04-03T06:01:51;1.60;99.90
4451;DHT22;2238;50.180;9.230;2023-04-03T06:04:51;1.40;99.90
4451;DHT22;2238;50.180;9.230;2023-04-03T06:07:52;1.40;99.90
4451;DHT22;2238;50.180;9.230;2023-04-03T06:10:53;1.40;99.90
4451;DHT22;2238;50.180;9.230;2023-04-03T06:13:54;1.40;99.90
4451;DHT22;2238;50.180;9.230;2023-04-03T06:16:55;1.40;99.90
4451;DHT22;2238;50.180;9.230;2023-04-03T06:19:56;1.40;99.90
4451;DHT22;2238;50.180;9.230;2023-04-03T06:22:58;1.50;99.90
4451;DHT22;2238;50.180;9.230;2023-04-03T06:25:59;1.40;99.90
4451;DHT22;2238;50.180;9.230;2023-04-03T06:29:00;1.50;99.90
4451;DHT22;2238;50.180;9.230;2023-04-03T06:32:02;1.60;99.90
4451;DHT22;2238;50.180;9.230;2023-04-03T06:35:04;0.50;99.90
4451;DHT22;2238;50.180;9.230;2023-04-03T06:38:05;1.70;99.90
4451;DHT22;2238;50.180;9.230;2023-04-03T06:41:09;1.80;99.90
4451;DHT22;2238;50.180;9.230;2023-04-03T06:44:10;1.90;99.90
4451;DHT22;2238;50.180;9.230;2023-04-03T06:47:14;2.20;99.90
4451;DHT22;2238;50.180;9.230;2023-04-03T06:50:15;2.00;99.90
4451;DHT22;2238;50.180;9.230;2023-04-03T06:53:16;2.20;99.90
4451;DHT22;2238;50.180;9.230;2023-04-03T06:56:17;2.40;99.90
4451;DHT22;2238;50.180;9.230;2023-04-03T06:59:17;2.10;99.90
4451;DHT22;2238;50.180;9.230;2023-04-03T07:02:18;2.30;99.90
4451;DHT22;2238;50.180;9.230;2023-04-03T07:05:19;4.40;99.90
4451;DHT22;2238;50.180;9.230;2023-04-03T07:08:21;3.10;99.90
4451;DHT22;2238;50.180;9.230;2023-04-03T07:11:23;3.00;99.90
4451;DHT22;2238;50.180;9.230;2023-04-03T07:14:24;2.80;99.90
4451;DHT22;2238;50.180;9.230;2023-04-03T07:17:25;3.10;99.90
4451;DHT22;2238;50.180;9.230;2023-04-03T07:20:25;3.00;99.90
4451;DHT22;2238;50.180;9.230;2023-04-03T07:23:27;3.70;99.90
4451;DHT22;2238;50.180;9.230;2023-04-03T07:26:27;4.40;99.90
4451;DHT22;2238;50.180;9.230;2023-04-03T07:29:28;3.70;99.90
4451;DHT22;2238;50.180;9.230;2023-04-03T07:32:29;3.70;99.90
4451;DHT22;2238;50.180;9.230;2023-04-03T07:35:29;4.80;99.90
4451;DHT22;2238;50.180;9.230;2023-04-03T07:38:30;4.40;99.90
4451;DHT22;2238;50.180;9.230;2023-04-03T07:41:31;4.10;99.90
4451;DHT22;2238;50.180;9.230;2023-04-03T07:44:31;5.10;99.90
4451;DHT22;2238;50.180;9.230;2023-04-03T07:47:32;4.80;99.90
4451;DHT22;2238;50.180;9.230;2023-04-03T07:50:33;4.40;99.90
4451;DHT22;2238;50.180;9.230;2023-04-03T07:53:33;4.10;99.90
4451;DHT22;2238;50.180;9.230;2023-04-03T07:56:34;3.90;99.90
4451;DHT22;2238;50.180;9.230;2023-04-03T07:59:35;4.00;99.90
4451;DHT22;2238;50.180;9.230;2023-04-03T08:02:36;4.50;99.90
4451;DHT22;2238;50.180;9.230;2023-04-03T08:05:41;4.60;99.90
4451;DHT22;2238;50.180;9.230;2023-04-03T08:08:42;4.20;99.90
4451;DHT22;2238;50.180;9.230;2023-04-03T08:11:43;4.10;99.90
4451;DHT22;2238;50.180;9.230;2023-04-03T08:14:44;4.20;99.90
4451;DHT22;2238;50.180;9.230;2023-04-03T08:17:45;4.20;99.90
4451;DHT22;2238;50.180;9.230;2023-04-03T08:20:46;4.10;99.90
4451;DHT22;2238;50.180;9.230;2023-04-03T08:23:48;4.30;99.90
4451;DHT22;2238;50.180;9.230;2023-04-03T08:26:50;4.70;99.90
4451;DHT22;2238;50.180;9.230;2023-04-03T08:29:51;4.40;99.90
4451;DHT22;2238;50.180;9.230;2023-04-03T08:32:52;4.90;99.90
4451;DHT22;2238;50.180;9.230;2023-04-03T08:35:52;4.70;99.90
4451;DHT22;2238;50.180;9.230;2023-04-03T08:38:54;4.70;99.90
4451;DHT22;2238;50.180;9.230;2023-04-03T08:42:00;4.90;99.90
4451;DHT22;2238;50.180;9.230;2023-04-03T08:45:25;4.40;99.90
4451;DHT22;2238;50.180;9.230;2023-04-03T08:48:36;4.80;99.90
4451;DHT22;2238;50.180;9.230;2023-04-03T08:51:41;4.70;99.90
4451;DHT22;2238;50.180;9.230;2023-04-03T08:55:05;5.50;99.90
4451;DHT22;2238;50.180;9.230;2023-04-03T08:58:15;5.00;99.90
4451;DHT22;2238;50.180;9.230;2023-04-03T09:01:37;5.70;99.90
4451;DHT22;2238;50.180;9.230;2023-04-03T09:04:38;5.40;99.90
4451;DHT22;2238;50.180;9.230;2023-04-03T09:07:49;5.20;99.90
4451;DHT22;2238;50.180;9.230;2023-04-03T09:14:36;5.20;99.90
4451;DHT22;2238;50.180;9.230;2023-04-03T09:24:16;5.10;99.90
4451;DHT22;2238;50.180;9.230;2023-04-03T09:27:18;5.30;99.90
4451;DHT22;2238;50.180;9.230;2023-04-03T09:30:22;5.80;99.90
4451;DHT22;2238;50.180;9.230;2023-04-03T09:33:24;5.30;99.90
4451;DHT22;2238;50.180;9.230;2023-04-03T09:36:45;5.50;99.90
4451;DHT22;2238;50.180;9.230;2023-04-03T09:39:52;5.70;99.90
4451;DHT22;2238;50.180;9.230;2023-04-03T09:42:57;5.80;99.90
4451;DHT22;2238;50.180;9.230;2023-04-03T09:49:26;6.40;99.90
4451;DHT22;2238;50.180;9.230;2023-04-03T09:52:27;4.90;99.90
4451;DHT22;2238;50.180;9.230;2023-04-03T09:55:29;5.10;99.90
4451;DHT22;2238;50.180;9.230;2023-04-03T09:58:33;5.90;99.90
4451;DHT22;2238;50.180;9.230;2023-04-03T10:01:39;6.20;99.90
4451;DHT22;2238;50.180;9.230;2023-04-03T10:04:40;5.60;99.90
4451;DHT22;2238;50.180;9.230;2023-04-03T10:07:41;5.10;99.90
4451;DHT22;2238;50.180;9.230;2023-04-03T10:10:45;5.60;99.90
4451;DHT22;2238;50.180;9.230;2023-04-03T10:13:52;5.70;99.90
4451;DHT22;2238;50.180;9.230;2023-04-03T10:17:03;6.40;99.90
4451;DHT22;2238;50.180;9.230;2023-04-03T10:20:27;6.70;99.90
4451;DHT22;2238;50.180;9.230;2023-04-03T10:23:33;6.50;99.90
4451;DHT22;2238;50.180;9.230;2023-04-03T10:27:00;6.70;99.90
4451;DHT22;2238;50.180;9.230;2023-04-03T10:37:01;7.10;99.90
4451;DHT22;2238;50.180;9.230;2023-04-03T10:40:15;7.20;99.90
4451;DHT22;2238;50.180;9.230;2023-04-03T10:43:41;7.80;99.90
4451;DHT22;2238;50.180;9.230;2023-04-03T10:46:52;7.10;99.90
4451;DHT22;2238;50.180;9.230;2023-04-03T10:57:04;7.70;99.90
4451;DHT22;2238;50.180;9.230;2023-04-03T11:00:16;8.10;99.90
4451;DHT22;2238;50.180;9.230;2023-04-03T11:03:41;8.10;99.90
4451;DHT22;2238;50.180;9.230;2023-04-03T11:06:49;8.30;99.90
4451;DHT22;2238;50.180;9.230;2023-04-03T11:09:55;8.50;99.90
4451;DHT22;2238;50.180;9.230;2023-04-03T11:16:47;7.90;99.90
4451;DHT22;2238;50.180;9.230;2023-04-03T11:23:04;8.00;99.90
4451;DHT22;2238;50.180;9.230;2023-04-03T11:26:14;8.80;99.90
4451;DHT22;2238;50.180;9.230;2023-04-03T11:29:20;9.00;99.90
4451;DHT22;2238;50.180;9.230;2023-04-03T11:32:48;7.90;99.90
4451;DHT22;2238;50.180;9.230;2023-04-03T11:35:52;8.00;99.90
4451;DHT22;2238;50.180;9.230;2023-04-03T11:38:57;7.40;99.90
4451;DHT22;2238;50.180;9.230;2023-04-03T11:45:31;7.00;99.90
4451;DHT22;2238;50.180;9.230;2023-04-03T11:51:40;6.90;99.90
4451;DHT22;2238;50.180;9.230;2023-04-03T11:54:46;7.00;99.90
4451;DHT22;2238;50.180;9.230;2023-04-03T12:01:05;7.20;99.90
4451;DHT22;2238;50.180;9.230;2023-04-03T12:04:10;7.10;99.90
4451;DHT22;2238;50.180;9.230;2023-04-03T12:07:17;7.40;99.90
4451;DHT22;2238;50.180;9.230;2023-04-03T12:10:18;7.80;99.90
4451;DHT22;2238;50.180;9.230;2023-04-03T12:13:19;7.50;99.90
4451;DHT22;2238;50.180;9.230;2023-04-03T12:16:27;7.20;99.90
4451;DHT22;2238;50.180;9.230;2023-04-03T12:19:34;7.60;99.90
4451;DHT22;2238;50.180;9.230;2023-04-03T12:22:36;7.10;99.90
4451;DHT22;2238;50.180;9.230;2023-04-03T12:25:49;7.00;99.90
4451;DHT22;2238;50.180;9.230;2023-04-03T12:28:53;7.70;99.90
4451;DHT22;2238;50.180;9.230;2023-04-03T12:35:34;7.60;99.90
4451;DHT22;2238;50.180;9.230;2023-04-03T12:38:58;7.30;99.90
4451;DHT22;2238;50.180;9.230;2023-04-03T12:42:18;7.90;99.90
4451;DHT22;2238;50.180;9.230;2023-04-03T12:45:23;8.00;99.90
4451;DHT22;2238;50.180;9.230;2023-04-03T12:48:26;7.50;99.90
4451;DHT22;2238;50.180;9.230;2023-04-03T12:54:38;7.70;99.90
4451;DHT22;2238;50.180;9.230;2023-04-03T12:57:44;7.70;99.90
4451;DHT22;2238;50.180;9.230;2023-04-03T13:00:45;7.80;99.90
4451;DHT22;2238;50.180;9.230;2023-04-03T13:03:48;7.40;99.90
4451;DHT22;2238;50.180;9.230;2023-04-03T13:06:49;8.30;99.90
4451;DHT22;2238;50.180;9.230;2023-04-03T13:10:13;8.90;99.90
4451;DHT22;2238;50.180;9.230;2023-04-03T13:13:15;7.30;99.90
4451;DHT22;2238;50.180;9.230;2023-04-03T13:16:16;7.20;99.90
4451;DHT22;2238;50.180;9.230;2023-04-03T13:19:17;5.00;99.90
4451;DHT22;2238;50.180;9.230;2023-04-03T13:22:31;7.40;99.90
4451;DHT22;2238;50.180;9.230;2023-04-03T13:25:35;7.20;99.90
4451;DHT22;2238;50.180;9.230;2023-04-03T13:28:37;7.20;99.90
4451;DHT22;2238;50.180;9.230;2023-04-03T13:31:39;7.20;99.90
4451;DHT22;2238;50.180;9.230;2023-04-03T13:34:42;8.20;99.90
4451;DHT22;2238;50.180;9.230;2023-04-03T13:37:55;7.20;99.90
4451;DHT22;2238;50.180;9.230;2023-04-03T13:40:58;7.00;99.90
4451;DHT22;2238;50.180;9.230;2023-04-03T13:47:23;7.10;99.90
4451;DHT22;2238;50.180;9.230;2023-04-03T13:50:25;7.00;99.90
4451;DHT22;2238;50.180;9.230;2023-04-03T13:53:29;6.10;99.90
4451;DHT22;2238;50.180;9.230;2023-04-03T13:56:38;6.80;99.90
4451;DHT22;2238;50.180;9.230;2023-04-03T13:59:39;7.10;99.90
4451;DHT22;2238;50.180;9.230;2023-04-03T14:02:39;7.00;99.90
4451;DHT22;2238;50.180;9.230;2023-04-03T14:05:41;7.10;99.90
4451;DHT22;2238;50.180;9.230;2023-04-03T14:08:41;6.70;99.90
4451;DHT22;2238;50.180;9.230;2023-04-03T14:11:43;6.60;99.90
4451;DHT22;2238;50.180;9.230;2023-04-03T14:14:44;6.60;99.90
4451;DHT22;2238;50.180;9.230;2023-04-03T14:17:45;6.90;99.90
4451;DHT22;2238;50.180;9.230;2023-04-03T14:20:48;6.90;99.90
4451;DHT22;2238;50.180;9.230;2023-04-03T14:23:49;7.10;99.90
4451;DHT22;2238;50.180;9.230;2023-04-03T14:26:52;7.20;99.90
4451;DHT22;2238;50.180;9.230;2023-04-03T14:29:54;7.10;99.90
4451;DHT22;2238;50.180;9.230;2023-04-03T14:32:55;7.20;99.90
4451;DHT22;2238;50.180;9.230;2023-04-03T14:35:55;7.40;99.90
4451;DHT22;2238;50.180;9.230;2023-04-03T14:38:57;7.30;99.90
4451;DHT22;2238;50.180;9.230;2023-04-03T14:41:58;7.20;99.90
4451;DHT22;2238;50.180;9.230;2023-04-03T14:45:00;7.00;99.90
4451;DHT22;2238;50.180;9.230;2023-04-03T14:48:03;7.00;99.90
4451;DHT22;2238;50.180;9.230;2023-04-03T14:51:03;6.80;99.90
4451;DHT22;2238;50.180;9.230;2023-04-03T14:54:05;6.90;99.90
4451;DHT22;2238;50.180;9.230;2023-04-03T14:57:09;9.10;99.90
4451;DHT22;2238;50.180;9.230;2023-04-03T15:00:17;6.90;99.90
4451;DHT22;2238;50.180;9.230;2023-04-03T15:03:20;6.90;99.90
4451;DHT22;2238;50.180;9.230;2023-04-03T15:06:21;6.80;99.90
4451;DHT22;2238;50.180;9.230;2023-04-03T15:09:24;6.90;99.90
4451;DHT22;2238;50.180;9.230;2023-04-03T15:12:25;6.70;99.90
4451;DHT22;2238;50.180;9.230;2023-04-03T15:15:29;6.70;99.90
4451;DHT22;2238;50.180;9.230;2023-04-03T15:18:35;6.70;99.90
4451;DHT22;2238;50.180;9.230;2023-04-03T15:21:38;6.70;99.90
4451;DHT22;2238;50.180;9.230;2023-04-03T15:24:39;6.60;99.90
4451;DHT22;2238;50.180;9.230;2023-04-03T15:27:41;6.80;99.90
4451;DHT22;2238;50.180;9.230;2023-04-03T15:30:42;6.80;99.90
4451;DHT22;2238;50.180;9.230;2023-04-03T15:33:43;6.70;99.90
4451;DHT22;2238;50.180;9.230;2023-04-03T15:36:43;6.70;99.90
4451;DHT22;2238;50.180;9.230;2023-04-03T15:39:44;6.70;99.90
4451;DHT22;2238;50.180;9.230;2023-04-03T15:42:44;6.80;99.90
4451;DHT22;2238;50.180;9.230;2023-04-03T15:45:45;6.60;99.90
4451;DHT22;2238;50.180;9.230;2023-04-03T15:48:46;6.80;99.90
4451;DHT22;2238;50.180;9.230;2023-04-03T15:51:47;6.50;99.90
4451;DHT22;2238;50.180;9.230;2023-04-03T15:54:47;6.50;99.90
4451;DHT22;2238;50.180;9.230;2023-04-03T15:57:48;6.50;99.90
4451;DHT22;2238;50.180;9.230;2023-04-03T16:00:48;6.50;99.90
4451;DHT22;2238;50.180;9.230;2023-04-03T16:03:49;6.30;99.90
4451;DHT22;2238;50.180;9.230;2023-04-03T16:06:51;6.30;99.90
4451;DHT22;2238;50.180;9.230;2023-04-03T16:09:52;6.40;99.90
4451;DHT22;2238;50.180;9.230;2023-04-03T16:12:53;6.50;99.90
4451;DHT22;2238;50.180;9.230;2023-04-03T16:15:54;6.50;99.90
4451;DHT22;2238;50.180;9.230;2023-04-03T16:18:55;6.50;99.90
4451;DHT22;2238;50.180;9.230;2023-04-03T16:21:56;6.30;99.90
4451;DHT22;2238;50.180;9.230;2023-04-03T16:24:57;6.30;99.90
4451;DHT22;2238;50.180;9.230;2023-04-03T16:27:57;6.20;99.90
4451;DHT22;2238;50.180;9.230;2023-04-03T16:30:59;6.10;99.90
4451;DHT22;2238;50.180;9.230;2023-04-03T16:34:01;6.10;99.90
4451;DHT22;2238;50.180;9.230;2023-04-03T16:37:01;6.20;99.90
4451;DHT22;2238;50.180;9.230;2023-04-03T16:40:03;6.10;99.90
4451;DHT22;2238;50.180;9.230;2023-04-03T16:43:04;6.10;99.90
4451;DHT22;2238;50.180;9.230;2023-04-03T16:46:05;6.00;99.90
4451;DHT22;2238;50.180;9.230;2023-04-03T16:49:05;5.80;99.90
4451;DHT22;2238;50.180;9.230;2023-04-03T16:52:06;5.80;99.90
4451;DHT22;2238;50.180;9.230;2023-04-03T16:55:08;5.70;99.90
4451;DHT22;2238;50.180;9.230;2023-04-03T16:58:09;5.70;99.90
4451;DHT22;2238;50.180;9.230;2023-04-03T17:01:12;5.70;99.90
4451;DHT22;2238;50.180;9.230;2023-04-03T17:04:13;5.70;99.90
4451;DHT22;2238;50.180;9.230;2023-04-03T17:07:14;5.60;99.90
4451;DHT22;2238;50.180;9.230;2023-04-03T17:10:15;5.50;99.90
4451;DHT22;2238;50.180;9.230;2023-04-03T17:13:15;5.60;99.90
4451;DHT22;2238;50.180;9.230;2023-04-03T17:16:16;5.40;99.90
4451;DHT22;2238;50.180;9.230;2023-04-03T17:19:17;5.50;99.90
4451;DHT22;2238;50.180;9.230;2023-04-03T17:22:17;5.40;99.90
4451;DHT22;2238;50.180;9.230;2023-04-03T17:25:18;5.40;99.90
4451;DHT22;2238;50.180;9.230;2023-04-03T17:28:19;5.40;99.90
4451;DHT22;2238;50.180;9.230;2023-04-03T17:31:19;5.30;99.90
4451;DHT22;2238;50.180;9.230;2023-04-03T17:34:20;5.10;99.90
4451;DHT22;2238;50.180;9.230;2023-04-03T17:37:21;5.20;99.90
4451;DHT22;2238;50.180;9.230;2023-04-03T17:40:22;4.90;99.90
4451;DHT22;2238;50.180;9.230;2023-04-03T17:43:22;4.90;99.90
4451;DHT22;2238;50.180;9.230;2023-04-03T17:46:24;5.00;99.90
4451;DHT22;2238;50.180;9.230;2023-04-03T17:49:25;5.00;99.90
4451;DHT22;2238;50.180;9.230;2023-04-03T17:52:25;4.90;99.90
4451;DHT22;2238;50.180;9.230;2023-04-03T17:55:27;5.00;99.90
4451;DHT22;2238;50.180;9.230;2023-04-03T17:58:28;4.70;99.90
4451;DHT22;2238;50.180;9.230;2023-04-03T18:01:30;4.80;99.90
4451;DHT22;2238;50.180;9.230;2023-04-03T18:04:32;4.80;99.90
4451;DHT22;2238;50.180;9.230;2023-04-03T18:07:32;4.80;99.90
4451;DHT22;2238;50.180;9.230;2023-04-03T18:10:35;4.50;99.90
4451;DHT22;2238;50.180;9.230;2023-04-03T18:13:36;4.40;99.90
4451;DHT22;2238;50.180;9.230;2023-04-03T18:16:37;4.60;99.90
4451;DHT22;2238;50.180;9.230;2023-04-03T18:19:38;4.70;99.90
4451;DHT22;2238;50.180;9.230;2023-04-03T18:22:38;4.70;99.90
4451;DHT22;2238;50.180;9.230;2023-04-03T18:25:39;4.50;99.90
4451;DHT22;2238;50.180;9.230;2023-04-03T18:28:43;4.40;99.90
4451;DHT22;2238;50.180;9.230;2023-04-03T18:31:47;4.40;99.90
4451;DHT22;2238;50.180;9.230;2023-04-03T18:34:49;4.30;99.90
4451;DHT22;2238;50.180;9.230;2023-04-03T18:37:50;4.40;99.90
4451;DHT22;2238;50.180;9.230;2023-04-03T18:40:51;4.30;99.90
4451;DHT22;2238;50.180;9.230;2023-04-03T18:43:54;4.30;99.90
4451;DHT22;2238;50.180;9.230;2023-04-03T18:46:55;4.10;99.90
4451;DHT22;2238;50.180;9.230;2023-04-03T18:49:59;4.10;99.90
4451;DHT22;2238;50.180;9.230;2023-04-03T18:52:59;4.10;99.90
4451;DHT22;2238;50.180;9.230;2023-04-03T18:56:00;4.00;99.90
4451;DHT22;2238;50.180;9.230;2023-04-03T18:59:01;4.00;99.90
4451;DHT22;2238;50.180;9.230;2023-04-03T19:02:01;4.00;99.90
4451;DHT22;2238;50.180;9.230;2023-04-03T19:05:04;3.60;99.90
4451;DHT22;2238;50.180;9.230;2023-04-03T19:08:05;3.70;99.90
4451;DHT22;2238;50.180;9.230;2023-04-03T19:11:05;3.50;99.90
4451;DHT22;2238;50.180;9.230;2023-04-03T19:14:06;3.70;99.90
4451;DHT22;2238;50.180;9.230;2023-04-03T19:17:07;3.90;99.90
4451;DHT22;2238;50.180;9.230;2023-04-03T19:20:09;3.80;99.90
4451;DHT22;2238;50.180;9.230;2023-04-03T19:23:10;3.80;99.90
4451;DHT22;2238;50.180;9.230;2023-04-03T19:26:12;3.70;99.90
4451;DHT22;2238;50.180;9.230;2023-04-03T19:29:13;3.70;99.90
4451;DHT22;2238;50.180;9.230;2023-04-03T19:32:14;3.60;99.90
4451;DHT22;2238;50.180;9.230;2023-04-03T19:35:15;3.30;99.90
4451;DHT22;2238;50.180;9.230;2023-04-03T19:38:15;3.40;99.90
4451;DHT22;2238;50.180;9.230;2023-04-03T19:41:21;3.30;99.90
4451;DHT22;2238;50.180;9.230;2023-04-03T19:44:23;3.20;99.90
4451;DHT22;2238;50.180;9.230;2023-04-03T19:47:24;3.60;99.90
4451;DHT22;2238;50.180;9.230;2023-04-03T19:50:24;3.60;99.90
4451;DHT22;2238;50.180;9.230;2023-04-03T19:53:25;3.60;99.90
4451;DHT22;2238;50.180;9.230;2023-04-03T19:56:28;3.50;99.90
4451;DHT22;2238;50.180;9.230;2023-04-03T19:59:29;3.40;99.90
4451;DHT22;2238;50.180;9.230;2023-04-03T20:02:29;3.50;99.90
4451;DHT22;2238;50.180;9.230;2023-04-03T20:05:30;3.50;99.90
4451;DHT22;2238;50.180;9.230;2023-04-03T20:08:30;3.30;99.90
4451;DHT22;2238;50.180;9.230;2023-04-03T20:11:33;3.20;99.90
4451;DHT22;2238;50.180;9.230;2023-04-03T20:14:35;3.00;99.90
4451;DHT22;2238;50.180;9.230;2023-04-03T20:17:36;3.10;99.90
4451;DHT22;2238;50.180;9.230;2023-04-03T20:20:38;2.70;99.90
4451;DHT22;2238;50.180;9.230;2023-04-03T20:23:41;2.70;99.90
4451;DHT22;2238;50.180;9.230;2023-04-03T20:26:41;3.00;99.90
4451;DHT22;2238;50.180;9.230;2023-04-03T20:29:45;3.20;99.90
4451;DHT22;2238;50.180;9.230;2023-04-03T20:32:46;3.00;99.90
4451;DHT22;2238;50.180;9.230;2023-04-03T20:35:48;2.80;99.90
4451;DHT22;2238;50.180;9.230;2023-04-03T20:38:48;2.80;99.90
4451;DHT22;2238;50.180;9.230;2023-04-03T20:41:51;2.80;99.90
4451;DHT22;2238;50.180;9.230;2023-04-03T20:44:52;2.80;99.90
4451;DHT22;2238;50.180;9.230;2023-04-03T20:47:52;3.00;99.90
4451;DHT22;2238;50.180;9.230;2023-04-03T20:50:53;2.80;99.90
4451;DHT22;2238;50.180;9.230;2023-04-03T20:53:53;2.40;99.90
4451;DHT22;2238;50.180;9.230;2023-04-03T20:56:54;2.30;99.90
4451;DHT22;2238;50.180;9.230;2023-04-03T20:59:55;2.40;99.90
4451;DHT22;2238;50.180;9.230;2023-04-03T21:02:56;2.10;99.90
4451;DHT22;2238;50.180;9.230;2023-04-03T21:19:21;2.30;99.90
4451;DHT22;2238;50.180;9.230;2023-04-03T21:22:21;1.90;99.90
4451;DHT22;2238;50.180;9.230;2023-04-03T21:25:22;1.80;99.90
4451;DHT22;2238;50.180;9.230;2023-04-03T21:28:24;1.70;99.90
4451;DHT22;2238;50.180;9.230;2023-04-03T21:31:54;1.80;99.90
4451;DHT22;2238;50.180;9.230;2023-04-03T21:34:57;2.00;99.90
4451;DHT22;2238;50.180;9.230;2023-04-03T21:37:58;2.20;99.90
4451;DHT22;2238;50.180;9.230;2023-04-03T21:40:58;2.20;99.90
4451;DHT22;2238;50.180;9.230;2023-04-03T21:44:00;2.40;99.90